createdAt,value
2023-03-12T00:00:18.743Z,99101.97
2023-03-12T00:01:24.024Z,99099.41
2023-03-12T00:02:26.625Z,99102.91
2023-03-12T00:03:29.038Z,99102.88
2023-03-12T00:04:32.606Z,99102.91
2023-03-12T00:05:38.130Z,99101.19
2023-03-12T00:06:40.425Z,99095.19
2023-03-12T00:07:42.665Z,99100.31
2023-03-12T00:08:45.277Z,99102.03
2023-03-12T00:09:47.535Z,99090.00
2023-03-12T00:10:49.789Z,99092.59
2023-03-12T00:11:52.040Z,99088.28
2023-03-12T00:12:54.718Z,99086.56
2023-03-12T00:13:58.702Z,99086.56
2023-03-12T00:15:03.007Z,99087.44
2023-03-12T00:16:14.253Z,99090.88
2023-03-12T00:17:21.952Z,99091.75
2023-03-12T00:18:24.131Z,99085.72
2023-03-12T00:19:26.737Z,99089.16
2023-03-12T00:20:29.813Z,99092.59
2023-03-12T00:21:32.454Z,99087.41
2023-03-12T00:22:34.813Z,99090.84
2023-03-12T00:23:37.509Z,99089.06
2023-03-12T00:24:39.979Z,99083.13
2023-03-12T00:25:46.631Z,99087.44
2023-03-12T00:26:49.309Z,99080.56
2023-03-12T00:27:51.676Z,99089.16
2023-03-12T00:29:01.030Z,99083.13
2023-03-12T00:30:05.116Z,99078.84
2023-03-12T00:31:18.242Z,99090.00
2023-03-12T00:32:23.970Z,99090.88
2023-03-12T00:33:27.442Z,99086.56
2023-03-12T00:34:30.141Z,99084.00
2023-03-12T00:35:40.448Z,99083.13
2023-03-12T00:36:43.232Z,99089.13
2023-03-12T00:37:45.825Z,99090.00
2023-03-12T00:38:48.414Z,99074.56
2023-03-12T00:39:51.198Z,99084.00
2023-03-12T00:40:54.036Z,99091.72
2023-03-12T00:42:00.284Z,99088.28
2023-03-12T00:43:02.809Z,99089.16
2023-03-12T00:44:08.997Z,99085.69
2023-03-12T00:45:11.522Z,99073.69
2023-03-12T00:46:13.923Z,99086.56
2023-03-12T00:47:16.234Z,99071.13
2023-03-12T00:48:18.440Z,99080.53
2023-03-12T00:49:20.659Z,99077.13
2023-03-12T00:50:23.058Z,99079.69
2023-03-12T00:51:25.510Z,99079.69
2023-03-12T00:52:27.865Z,99069.38
2023-03-12T00:53:30.213Z,99082.25
2023-03-12T00:54:32.559Z,99073.66
2023-03-12T00:55:35.091Z,99081.41
2023-03-12T00:56:37.353Z,99067.69
2023-03-12T00:57:39.595Z,99076.28
2023-03-12T00:58:42.749Z,99071.94
2023-03-12T00:59:45.093Z,99083.13
2023-03-12T01:00:47.560Z,99078.84
2023-03-12T01:01:51.077Z,99077.13
2023-03-12T01:02:53.336Z,99074.50
2023-03-12T01:03:55.985Z,99077.09
2023-03-12T01:04:58.336Z,99077.06
2023-03-12T01:06:00.883Z,99078.81
2023-03-12T01:07:03.203Z,99077.09
2023-03-12T01:08:05.641Z,99084.00
2023-03-12T01:09:09.045Z,99078.84
2023-03-12T01:10:14.837Z,99065.97
2023-03-12T01:11:19.952Z,99080.56
2023-03-12T01:12:22.384Z,99084.88
2023-03-12T01:13:25.127Z,99083.16
2023-03-12T01:14:27.393Z,99078.00
2023-03-12T01:15:30.007Z,99077.91
2023-03-12T01:16:32.861Z,99065.91
2023-03-12T01:17:35.221Z,99069.34
2023-03-12T01:18:37.663Z,99077.97
2023-03-12T01:19:39.961Z,99070.22
2023-03-12T01:20:42.328Z,99071.13
2023-03-12T01:21:44.759Z,99069.34
2023-03-12T01:22:47.326Z,99064.19
2023-03-12T01:23:50.580Z,99074.47
2023-03-12T01:24:53.033Z,99077.06
2023-03-12T01:25:55.662Z,99075.38
2023-03-12T01:26:58.436Z,99070.22
2023-03-12T01:28:00.981Z,99076.19
2023-03-12T01:29:03.293Z,99081.38
2023-03-12T01:30:06.147Z,99080.56
2023-03-12T01:31:10.299Z,99079.69
2023-03-12T01:32:12.706Z,99082.25
2023-03-12T01:33:16.692Z,99079.66
2023-03-12T01:34:19.169Z,99085.72
2023-03-12T01:35:21.811Z,99084.84
2023-03-12T01:36:27.014Z,99089.97
2023-03-12T01:37:29.523Z,99086.56
2023-03-12T01:38:31.818Z,99085.66
2023-03-12T01:39:34.043Z,99081.41
2023-03-12T01:40:36.623Z,99090.00
2023-03-12T01:41:39.168Z,99085.69
2023-03-12T01:42:41.462Z,99077.94
2023-03-12T01:43:43.783Z,99080.53
2023-03-12T01:44:51.735Z,99081.41
2023-03-12T01:46:24.460Z,99081.41
2023-03-12T01:47:31.935Z,99080.53
2023-03-12T01:48:40.035Z,99071.06
2023-03-12T01:49:42.677Z,99077.97
2023-03-12T01:50:45.579Z,99070.22
2023-03-12T01:52:04.584Z,99077.97
2023-03-12T01:53:13.647Z,99075.38
2023-03-12T01:54:30.810Z,99082.25
2023-03-12T01:55:33.131Z,99075.38
2023-03-12T01:56:37.780Z,99065.06
2023-03-12T01:57:48.555Z,99071.06
2023-03-12T01:58:54.734Z,99066.81
2023-03-12T02:00:01.884Z,99072.81
2023-03-12T02:01:04.615Z,99064.22
2023-03-12T02:02:08.127Z,99058.22
2023-03-12T02:03:11.170Z,99072.84
2023-03-12T02:04:17.778Z,99073.69
2023-03-12T02:05:43.716Z,99061.69
2023-03-12T02:06:57.684Z,99069.41
2023-03-12T02:08:00.482Z,99062.53
2023-03-12T02:09:05.921Z,99055.63
2023-03-12T02:10:09.122Z,99064.25
2023-03-12T02:11:11.498Z,99062.56
2023-03-12T02:12:14.924Z,99059.09
2023-03-12T02:13:17.475Z,99053.97
2023-03-12T02:14:22.104Z,99043.66
2023-03-12T02:15:24.428Z,99052.22
2023-03-12T02:16:27.024Z,99053.94
2023-03-12T02:17:30.372Z,99051.34
2023-03-12T02:18:34.643Z,99052.22
2023-03-12T02:19:52.321Z,99048.81
2023-03-12T02:21:16.233Z,99051.34
2023-03-12T02:22:21.030Z,99053.94
2023-03-12T02:23:35.216Z,99038.50
2023-03-12T02:25:03.624Z,99050.50
2023-03-12T02:26:07.162Z,99054.81
2023-03-12T02:27:12.131Z,99046.19
2023-03-12T02:28:16.780Z,99042.78
2023-03-12T02:29:19.125Z,99045.34
2023-03-12T02:30:22.344Z,99055.66
2023-03-12T02:31:29.172Z,99052.22
2023-03-12T02:32:38.305Z,99047.94
2023-03-12T02:33:41.315Z,99052.25
2023-03-12T02:34:43.710Z,99054.81
2023-03-12T02:35:47.718Z,99054.81
2023-03-12T02:36:50.562Z,99054.81
2023-03-12T02:37:55.811Z,99051.34
2023-03-12T02:38:58.065Z,99058.22
2023-03-12T02:40:10.759Z,99059.97
2023-03-12T02:41:31.316Z,99064.25
2023-03-12T02:42:33.970Z,99064.25
2023-03-12T02:43:36.696Z,99066.81
2023-03-12T02:44:39.366Z,99058.22
2023-03-12T02:45:41.755Z,99059.94
2023-03-12T02:46:47.215Z,99056.50
2023-03-12T02:47:49.754Z,99052.19
2023-03-12T02:48:54.223Z,99049.63
2023-03-12T02:49:56.530Z,99052.19
2023-03-12T02:50:58.875Z,99056.50
2023-03-12T02:52:02.505Z,99056.50
2023-03-12T02:53:05.035Z,99048.75
2023-03-12T02:54:08.093Z,99048.75
2023-03-12T02:55:10.942Z,99037.63
2023-03-12T02:56:13.190Z,99038.50
2023-03-12T02:57:15.687Z,99047.06
2023-03-12T02:58:18.085Z,99031.63
2023-03-12T02:59:21.851Z,99035.94
2023-03-12T03:02:13.026Z,99047.06
2023-03-12T03:03:15.746Z,99031.63
2023-03-12T03:04:17.942Z,99038.47
2023-03-12T03:05:21.391Z,99035.06
2023-03-12T03:06:24.172Z,99040.22
2023-03-12T03:07:26.533Z,99038.47
2023-03-12T03:08:29.731Z,99042.75
2023-03-12T03:09:31.935Z,99044.47
2023-03-12T03:10:34.285Z,99038.41
2023-03-12T03:11:36.723Z,99043.59
2023-03-12T03:12:40.895Z,99036.69
2023-03-12T03:13:44.767Z,99036.72
2023-03-12T03:14:47.673Z,99041.00
2023-03-12T03:15:49.927Z,99047.03
2023-03-12T03:16:52.865Z,99042.72
2023-03-12T03:17:59.260Z,99048.72
2023-03-12T03:19:02.236Z,99046.97
2023-03-12T03:20:11.973Z,99042.75
2023-03-12T03:21:16.632Z,99045.31
2023-03-12T03:22:21.317Z,99053.94
2023-03-12T03:23:24.027Z,99051.34
2023-03-12T03:24:26.398Z,99044.47
2023-03-12T03:25:28.919Z,99040.19
2023-03-12T03:26:31.288Z,99040.19
2023-03-12T03:27:33.547Z,99046.19
2023-03-12T03:28:35.888Z,99032.47
2023-03-12T03:29:38.368Z,99034.19
2023-03-12T03:30:40.816Z,99029.88
2023-03-12T03:31:43.646Z,99040.19
2023-03-12T03:32:47.580Z,99029.91
2023-03-12T03:33:51.195Z,99030.75
2023-03-12T03:34:53.444Z,99032.44
2023-03-12T03:35:57.191Z,99034.16
2023-03-12T03:36:59.772Z,99017.84
2023-03-12T03:38:02.565Z,99023.88
2023-03-12T03:39:05.257Z,99023.03
2023-03-12T03:40:11.857Z,99015.25
2023-03-12T03:41:18.880Z,99016.91
2023-03-12T03:42:21.683Z,99017.69
2023-03-12T03:43:24.949Z,99026.25
2023-03-12T03:44:27.369Z,99027.03
2023-03-12T03:45:30.062Z,99021.84
2023-03-12T03:46:32.307Z,99016.69
2023-03-12T03:47:38.330Z,99020.97
2023-03-12T03:48:41.461Z,99018.38
2023-03-12T03:49:45.482Z,99019.25
2023-03-12T03:50:47.905Z,99021.03
2023-03-12T03:51:51.837Z,99019.34
2023-03-12T03:53:02.189Z,99026.25
2023-03-12T03:54:04.519Z,99021.09
2023-03-12T03:55:07.104Z,99019.34
2023-03-12T03:56:15.809Z,99022.81
2023-03-12T03:57:24.141Z,99018.50
2023-03-12T03:58:26.314Z,99029.69
2023-03-12T03:59:28.785Z,99028.81
2023-03-12T04:00:31.390Z,99028.81
2023-03-12T04:01:33.677Z,99012.47
2023-03-12T04:02:37.072Z,99027.94
2023-03-12T04:03:39.313Z,99027.97
2023-03-12T04:04:41.811Z,99027.13
2023-03-12T04:05:45.277Z,99024.59
2023-03-12T04:06:48.437Z,99021.09
2023-03-12T04:07:53.536Z,99015.09
2023-03-12T04:08:59.133Z,99025.41
2023-03-12T04:10:04.633Z,99025.31
2023-03-12T04:11:12.945Z,99027.94
2023-03-12T04:12:15.326Z,99032.19
2023-03-12T04:13:18.052Z,99021.78
2023-03-12T04:14:20.308Z,99014.94
2023-03-12T04:15:22.562Z,99023.53
2023-03-12T04:16:25.515Z,99026.97
2023-03-12T04:17:29.347Z,99023.47
2023-03-12T04:18:32.501Z,99021.78
2023-03-12T04:19:37.158Z,99021.78
2023-03-12T04:20:40.968Z,99029.50
2023-03-12T04:21:43.776Z,99025.19
2023-03-12T04:22:47.472Z,99024.44
2023-03-12T04:23:49.757Z,99020.16
2023-03-12T04:24:52.858Z,99019.22
2023-03-12T04:25:55.645Z,99018.31
2023-03-12T04:26:59.072Z,99024.25
2023-03-12T04:28:01.986Z,99024.19
2023-03-12T04:29:04.307Z,99026.88
2023-03-12T04:30:07.303Z,99026.88
2023-03-12T04:31:11.551Z,99025.16
2023-03-12T04:32:34.084Z,99032.03
2023-03-12T04:33:38.657Z,99035.44
2023-03-12T04:34:41.420Z,99030.22
2023-03-12T04:35:51.598Z,99027.69
2023-03-12T04:36:54.038Z,99025.00
2023-03-12T04:37:57.487Z,99031.06
2023-03-12T04:39:01.556Z,99025.97
2023-03-12T04:40:09.759Z,99031.97
2023-03-12T04:41:14.505Z,99028.53
2023-03-12T04:42:23.255Z,99031.09
2023-03-12T04:43:25.948Z,99030.19
2023-03-12T04:44:28.196Z,99021.56
2023-03-12T04:45:30.508Z,99028.56
2023-03-12T04:46:32.885Z,99028.56
2023-03-12T04:47:35.243Z,99029.44
2023-03-12T04:48:37.777Z,99029.53
2023-03-12T04:49:40.249Z,99022.59
2023-03-12T04:50:43.510Z,99019.94
2023-03-12T04:51:46.010Z,99022.53
2023-03-12T04:52:48.302Z,99020.03
2023-03-12T04:53:51.465Z,99021.78
2023-03-12T04:54:54.350Z,99026.00
2023-03-12T04:55:56.985Z,99028.56
2023-03-12T04:56:59.704Z,99019.22
2023-03-12T04:58:02.405Z,99010.63
2023-03-12T04:59:05.824Z,99027.75
2023-03-12T05:00:14.867Z,99019.00
2023-03-12T05:01:33.388Z,99025.97
2023-03-12T05:02:39.429Z,99026.81
2023-03-12T05:03:41.924Z,99031.06
2023-03-12T05:04:44.441Z,99023.31
2023-03-12T05:05:46.890Z,99023.25
2023-03-12T05:06:49.454Z,99032.03
2023-03-12T05:07:51.794Z,99029.47
2023-03-12T05:08:54.196Z,99025.19
2023-03-12T05:09:57.061Z,99028.59
2023-03-12T05:10:59.279Z,99037.13
2023-03-12T05:12:02.125Z,99025.13
2023-03-12T05:13:04.660Z,99019.94
2023-03-12T05:14:06.997Z,99027.69
2023-03-12T05:15:09.589Z,99026.81
2023-03-12T05:16:13.304Z,99021.78
2023-03-12T05:17:16.364Z,99013.97
2023-03-12T05:18:20.463Z,99031.97
2023-03-12T05:19:23.083Z,99015.59
2023-03-12T05:20:25.404Z,99025.88
2023-03-12T05:21:27.870Z,99016.31
2023-03-12T05:22:32.139Z,99017.16
2023-03-12T05:23:35.956Z,99014.63
2023-03-12T05:24:38.447Z,99004.25
2023-03-12T05:25:41.100Z,99014.69
2023-03-12T05:26:43.674Z,99015.59
2023-03-12T05:27:50.366Z,99017.22
2023-03-12T05:28:52.822Z,99018.88
2023-03-12T05:29:56.705Z,99019.78
2023-03-12T05:31:00.416Z,99020.75
2023-03-12T05:32:03.391Z,99014.84
2023-03-12T05:33:05.687Z,99017.44
2023-03-12T05:34:07.943Z,99016.63
2023-03-12T05:35:14.337Z,99018.34
2023-03-12T05:36:18.349Z,99019.13
2023-03-12T05:37:21.841Z,99017.28
2023-03-12T05:38:25.555Z,99017.25
2023-03-12T05:39:28.628Z,99013.94
2023-03-12T05:40:34.848Z,99013.09
2023-03-12T05:41:37.115Z,99003.56
2023-03-12T05:42:48.437Z,99011.28
2023-03-12T05:43:52.758Z,99005.34
2023-03-12T05:44:57.391Z,99007.19
2023-03-12T05:46:04.210Z,99005.47
2023-03-12T05:47:09.162Z,99009.78
2023-03-12T05:48:11.644Z,99011.38
2023-03-12T05:49:14.096Z,98996.59
2023-03-12T05:50:19.313Z,98994.72
2023-03-12T05:51:22.167Z,98988.78
2023-03-12T05:52:24.656Z,98994.78
2023-03-12T05:53:29.342Z,98990.56
2023-03-12T05:54:31.663Z,98982.03
2023-03-12T05:55:38.414Z,98990.66
2023-03-12T05:56:43.812Z,98993.31
2023-03-12T05:57:46.131Z,98990.66
2023-03-12T05:58:51.282Z,98985.38
2023-03-12T05:59:54.601Z,98987.88
2023-03-12T06:00:57.079Z,98983.50
2023-03-12T06:01:59.615Z,98975.84
2023-03-12T06:03:02.810Z,98974.91
2023-03-12T06:04:05.685Z,98985.25
2023-03-12T06:05:13.048Z,98978.34
2023-03-12T06:06:16.262Z,98986.84
2023-03-12T06:07:18.725Z,98981.50
2023-03-12T06:08:22.202Z,98980.69
2023-03-12T06:09:24.864Z,98981.66
2023-03-12T06:10:29.131Z,98978.31
2023-03-12T06:11:33.799Z,98967.97
2023-03-12T06:12:38.294Z,98977.53
2023-03-12T06:13:43.564Z,98964.66
2023-03-12T06:14:46.213Z,98967.28
2023-03-12T06:15:49.402Z,98975.84
2023-03-12T06:16:54.563Z,98979.16
2023-03-12T06:17:56.832Z,98973.97
2023-03-12T06:19:02.166Z,98973.06
2023-03-12T06:20:05.137Z,98975.63
2023-03-12T06:21:16.130Z,98977.34
2023-03-12T06:22:20.154Z,98972.19
2023-03-12T06:23:23.996Z,98976.53
2023-03-12T06:24:26.283Z,98986.75
2023-03-12T06:25:44.948Z,98980.59
2023-03-12T06:26:47.358Z,98983.06
2023-03-12T06:27:49.648Z,98978.84
2023-03-12T06:28:52.324Z,98978.97
2023-03-12T06:29:54.718Z,98975.72
2023-03-12T06:30:56.946Z,98967.19
2023-03-12T06:31:59.205Z,98976.66
2023-03-12T06:33:04.080Z,98981.78
2023-03-12T06:34:06.611Z,98964.41
2023-03-12T06:35:09.578Z,98964.28
2023-03-12T06:36:12.434Z,98968.56
2023-03-12T06:37:15.058Z,98954.72
2023-03-12T06:38:17.592Z,98966.72
2023-03-12T06:39:19.856Z,98968.56
2023-03-12T06:40:22.129Z,98972.94
2023-03-12T06:41:24.341Z,98975.63
2023-03-12T06:42:26.567Z,98980.81
2023-03-12T06:43:32.750Z,98984.31
2023-03-12T06:44:35.026Z,98971.38
2023-03-12T06:45:37.482Z,98974.81
2023-03-12T06:46:42.738Z,98971.22
2023-03-12T06:47:45.211Z,98976.25
2023-03-12T06:48:47.957Z,98981.31
2023-03-12T06:49:50.249Z,98983.81
2023-03-12T06:50:52.700Z,98980.31
2023-03-12T06:51:57.066Z,98981.97
2023-03-12T06:52:59.469Z,98975.25
2023-03-12T06:54:02.606Z,98986.41
2023-03-12T06:55:06.975Z,98983.03
2023-03-12T06:56:09.877Z,98989.91
2023-03-12T06:57:12.211Z,98989.06
2023-03-12T06:58:14.559Z,98983.88
2023-03-12T06:59:20.711Z,98987.09
2023-03-12T07:00:22.990Z,98989.78
2023-03-12T07:01:25.365Z,98979.28
2023-03-12T07:02:28.053Z,98980.72
2023-03-12T07:03:30.373Z,98979.03
2023-03-12T07:04:32.614Z,98986.22
2023-03-12T07:05:34.897Z,98981.03
2023-03-12T07:06:37.149Z,98985.38
2023-03-12T07:07:39.478Z,98988.66
2023-03-12T07:08:42.978Z,98986.25
2023-03-12T07:09:45.347Z,98992.16
2023-03-12T07:10:47.636Z,98994.72
2023-03-12T07:11:50.071Z,98991.28
2023-03-12T07:12:52.574Z,98996.41
2023-03-12T07:13:54.908Z,98991.31
2023-03-12T07:14:57.262Z,98994.59
2023-03-12T07:15:59.561Z,98992.88
2023-03-12T07:17:02.267Z,98983.34
2023-03-12T07:18:10.769Z,98987.66
2023-03-12T07:19:13.097Z,98984.31
2023-03-12T07:20:15.291Z,99001.47
2023-03-12T07:21:22.809Z,98988.50
2023-03-12T07:22:25.166Z,98995.44
2023-03-12T07:23:28.178Z,98989.41
2023-03-12T07:24:30.600Z,98992.81
2023-03-12T07:25:37.214Z,98986.53
2023-03-12T07:26:39.973Z,98991.69
2023-03-12T07:27:42.283Z,98990.72
2023-03-12T07:28:45.107Z,98999.31
2023-03-12T07:29:47.577Z,98996.06
2023-03-12T07:30:50.706Z,98996.75
2023-03-12T07:31:53.123Z,98993.16
2023-03-12T07:32:55.492Z,98999.19
2023-03-12T07:33:58.048Z,98992.50
2023-03-12T07:35:00.593Z,99007.22
2023-03-12T07:36:03.364Z,99002.81
2023-03-12T07:37:05.670Z,99002.81
2023-03-12T07:38:09.331Z,99005.25
2023-03-12T07:39:11.563Z,99003.38
2023-03-12T07:40:14.250Z,99005.78
2023-03-12T07:41:16.970Z,99006.78
2023-03-12T07:42:19.359Z,99007.03
2023-03-12T07:43:23.803Z,99008.75
2023-03-12T07:44:29.325Z,99008.84
2023-03-12T07:45:31.784Z,99001.53
2023-03-12T07:46:33.994Z,99011.56
2023-03-12T07:47:36.360Z,99015.41
2023-03-12T07:48:41.518Z,99016.19
2023-03-12T07:49:48.181Z,99017.66
2023-03-12T07:50:50.987Z,99002.91
2023-03-12T07:51:53.653Z,99011.09
2023-03-12T07:52:55.884Z,99013.28
2023-03-12T07:53:58.132Z,99014.34
2023-03-12T07:55:00.504Z,99010.97
2023-03-12T07:56:03.152Z,99021.47
2023-03-12T07:57:06.058Z,99009.09
2023-03-12T07:58:09.110Z,99006.53
2023-03-12T07:59:11.608Z,99006.75
2023-03-12T08:00:15.334Z,98988.72
2023-03-12T08:01:25.504Z,98998.00
2023-03-12T08:02:30.335Z,99003.94
2023-03-12T08:03:33.360Z,98992.78
2023-03-12T08:04:35.951Z,99003.13
2023-03-12T08:05:38.604Z,98995.38
2023-03-12T08:06:42.901Z,98996.16
2023-03-12T08:07:45.656Z,98997.22
2023-03-12T08:08:48.093Z,98991.16
2023-03-12T08:09:50.443Z,99000.47
2023-03-12T08:10:55.022Z,98988.19
2023-03-12T08:11:57.280Z,98991.69
2023-03-12T08:12:59.591Z,98985.75
2023-03-12T08:14:05.486Z,98993.28
2023-03-12T08:15:12.805Z,98989.53
2023-03-12T08:16:15.662Z,98999.09
2023-03-12T08:17:18.289Z,98990.53
2023-03-12T08:18:21.053Z,99002.72
2023-03-12T08:19:23.281Z,99006.09
2023-03-12T08:20:25.562Z,99002.78
2023-03-12T08:21:27.882Z,98996.25
2023-03-12T08:22:30.072Z,98997.06
2023-03-12T08:23:32.379Z,99010.66
2023-03-12T08:24:35.804Z,99003.72
2023-03-12T08:25:38.142Z,99000.41
2023-03-12T08:26:40.467Z,99003.06
2023-03-12T08:27:43.100Z,99004.66
2023-03-12T08:28:45.883Z,98999.44
2023-03-12T08:29:48.267Z,99009.09
2023-03-12T08:30:55.633Z,99007.28
2023-03-12T08:32:04.966Z,99003.56
2023-03-12T08:33:07.962Z,99013.06
2023-03-12T08:34:10.245Z,99015.56
2023-03-12T08:35:12.603Z,99004.22
2023-03-12T08:36:15.103Z,99007.75
2023-03-12T08:37:17.885Z,99013.97
2023-03-12T08:38:20.385Z,99012.78
2023-03-12T08:39:22.711Z,99012.59
2023-03-12T08:40:25.092Z,99011.84
2023-03-12T08:41:27.366Z,99010.22
2023-03-12T08:42:29.709Z,99003.16
2023-03-12T08:43:32.055Z,99006.59
2023-03-12T08:44:34.835Z,99011.50
2023-03-12T08:45:37.397Z,99008.91
2023-03-12T08:46:40.026Z,99022.97
2023-03-12T08:47:43.521Z,99017.75
2023-03-12T08:48:45.812Z,99017.09
2023-03-12T08:49:48.273Z,99023.00
2023-03-12T08:50:50.916Z,99017.72
2023-03-12T08:51:53.316Z,99024.81
2023-03-12T08:52:56.129Z,99024.25
2023-03-12T08:54:01.041Z,99018.09
2023-03-12T08:55:03.904Z,99014.59
2023-03-12T08:56:06.368Z,99019.88
2023-03-12T08:57:08.648Z,99019.31
2023-03-12T08:58:11.057Z,99017.63
2023-03-12T08:59:14.147Z,99025.03
2023-03-12T09:00:17.905Z,99021.44
2023-03-12T09:01:20.354Z,99019.78
2023-03-12T09:02:22.617Z,99013.94
2023-03-12T09:03:25.832Z,99022.47
2023-03-12T09:04:31.233Z,99022.47
2023-03-12T09:05:33.528Z,99024.34
2023-03-12T09:06:36.198Z,99014.84
2023-03-12T09:07:38.643Z,99026.00
2023-03-12T09:08:41.297Z,99026.75
2023-03-12T09:09:43.842Z,99027.03
2023-03-12T09:10:50.181Z,99022.59
2023-03-12T09:11:52.575Z,99020.13
2023-03-12T09:12:54.994Z,99030.41
2023-03-12T09:14:28.358Z,99036.41
2023-03-12T09:15:19.684Z,99040.44
2023-03-12T09:16:21.957Z,99036.91
2023-03-12T09:17:24.332Z,99033.22
2023-03-12T09:18:27.033Z,99034.19
2023-03-12T09:19:29.790Z,99027.94
2023-03-12T09:20:32.244Z,99028.78
2023-03-12T09:21:34.659Z,99027.97
2023-03-12T09:22:37.331Z,99021.13
2023-03-12T09:23:41.074Z,99018.66
2023-03-12T09:24:43.336Z,99024.69
2023-03-12T09:25:46.677Z,99020.44
2023-03-12T09:26:49.222Z,99023.13
2023-03-12T09:27:51.670Z,99026.25
2023-03-12T09:28:54.070Z,99014.81
2023-03-12T09:30:00.598Z,99029.63
2023-03-12T09:31:06.615Z,99029.75
2023-03-12T09:32:09.545Z,99027.94
2023-03-12T09:33:12.149Z,99025.97
2023-03-12T09:34:14.572Z,99021.50
2023-03-12T09:35:17.036Z,99027.47
2023-03-12T09:36:19.333Z,99013.09
2023-03-12T09:37:23.950Z,99023.50
2023-03-12T09:38:27.002Z,99029.56
2023-03-12T09:39:29.473Z,99028.50
2023-03-12T09:40:36.360Z,99019.94
2023-03-12T09:41:41.183Z,99026.31
2023-03-12T09:42:55.926Z,99028.84
2023-03-12T09:43:58.173Z,99033.91
2023-03-12T09:45:04.490Z,99034.63
2023-03-12T09:46:17.880Z,99025.66
2023-03-12T09:47:33.539Z,99033.44
2023-03-12T09:48:37.201Z,99029.78
2023-03-12T09:49:45.318Z,99027.78
2023-03-12T09:50:50.524Z,99032.84
2023-03-12T09:51:56.956Z,99026.56
2023-03-12T09:53:06.873Z,99027.81
2023-03-12T09:54:42.811Z,99031.00
2023-03-12T09:55:49.215Z,99056.72
2023-03-12T09:56:52.630Z,99045.06
2023-03-12T09:57:59.585Z,99037.84
2023-03-12T09:59:01.967Z,99036.44
2023-03-12T10:00:07.191Z,99039.47
2023-03-12T10:01:38.901Z,99056.59
2023-03-12T10:03:00.841Z,99051.47
2023-03-12T10:04:29.688Z,99039.00
2023-03-12T10:06:08.623Z,99027.84
2023-03-12T10:07:27.526Z,99037.25
2023-03-12T10:08:56.781Z,99041.53
2023-03-12T10:10:27.825Z,99051.34
2023-03-12T10:11:48.570Z,99046.19
2023-03-12T10:13:15.106Z,99044.88
2023-03-12T10:14:26.205Z,99056.16
2023-03-12T10:15:54.845Z,99049.19
2023-03-12T10:17:18.452Z,99045.94
2023-03-12T10:19:07.155Z,99059.13
2023-03-12T10:21:09.802Z,99065.19
2023-03-12T10:22:35.182Z,99052.75
2023-03-12T10:24:04.491Z,99056.59
2023-03-12T10:25:32.045Z,99066.53
2023-03-12T10:26:40.182Z,99061.06
2023-03-12T10:27:43.301Z,99058.06
2023-03-12T10:28:53.452Z,99058.53
2023-03-12T10:29:57.589Z,99056.63
2023-03-12T10:31:36.300Z,99047.03
2023-03-12T11:11:48.235Z,99015.84
2023-03-12T11:12:55.432Z,99017.72
2023-03-12T11:14:19.993Z,99015.25
2023-03-12T11:15:36.112Z,99014.84
2023-03-12T11:16:38.447Z,99021.06
2023-03-12T11:17:40.675Z,99010.75
2023-03-12T11:19:25.822Z,99014.38
2023-03-12T11:20:29.801Z,99005.00
2023-03-12T11:21:40.351Z,99006.28
2023-03-12T11:22:42.591Z,99009.25
2023-03-12T11:24:07.223Z,99008.31
2023-03-12T11:27:21.117Z,98996.63
2023-03-12T11:28:29.725Z,98998.28
2023-03-12T11:29:39.674Z,98992.44
2023-03-12T11:30:43.807Z,98991.34
2023-03-12T11:31:58.516Z,98999.72
2023-03-12T11:33:02.127Z,99004.28
2023-03-12T11:34:15.881Z,98996.75
2023-03-12T11:35:27.197Z,98995.59
2023-03-12T11:36:44.547Z,98997.97
2023-03-12T11:38:00.172Z,98998.13
2023-03-12T11:39:22.778Z,99001.28
2023-03-12T11:40:49.632Z,99003.88
2023-03-12T11:42:32.555Z,99007.78
2023-03-12T11:44:15.820Z,99010.50
2023-03-12T11:45:36.766Z,99013.59
2023-03-12T11:47:00.408Z,99011.78
2023-03-12T11:48:32.707Z,99011.84
2023-03-12T11:49:51.209Z,99003.78
2023-03-12T11:51:13.852Z,98994.84
2023-03-12T11:52:31.393Z,98994.06
2023-03-12T11:53:42.243Z,98989.72
2023-03-12T11:55:32.228Z,98998.94
2023-03-12T11:56:58.935Z,98994.44
2023-03-12T11:58:14.467Z,98997.53
2023-03-12T11:59:50.642Z,98985.16
2023-03-12T12:00:53.034Z,99008.50
2023-03-12T12:02:00.848Z,98989.97
2023-03-12T12:03:18.414Z,98991.50
2023-03-12T12:04:52.568Z,98996.47
2023-03-12T12:06:13.376Z,98997.47
2023-03-12T12:07:41.005Z,98995.75
2023-03-12T12:09:04.676Z,98995.91
2023-03-12T12:10:30.653Z,98998.00
2023-03-12T12:11:38.767Z,98983.09
2023-03-12T12:12:50.016Z,98989.72
2023-03-12T12:14:13.400Z,98988.28
2023-03-12T12:15:31.407Z,98995.53
2023-03-12T12:16:47.495Z,98983.63
2023-03-12T12:17:59.432Z,98984.97
2023-03-12T12:19:30.151Z,98978.22
2023-03-12T12:20:51.582Z,98983.38
2023-03-12T12:22:08.487Z,98981.72
2023-03-12T12:23:28.290Z,98979.09
2023-03-12T12:25:11.285Z,98978.47
2023-03-12T12:26:21.610Z,98979.16
2023-03-12T12:27:30.190Z,98979.69
2023-03-12T12:28:39.779Z,98969.72
2023-03-12T12:30:10.238Z,98974.31
2023-03-12T12:31:27.156Z,98973.69
2023-03-12T12:32:42.952Z,98977.19
2023-03-12T12:33:50.678Z,98974.19
2023-03-12T12:35:08.231Z,98969.16
2023-03-12T12:36:10.956Z,98973.41
2023-03-12T12:37:39.230Z,98970.38
2023-03-12T12:38:43.769Z,98978.22
2023-03-12T12:39:52.049Z,98979.38
2023-03-12T12:41:01.351Z,98973.72
2023-03-12T12:42:07.828Z,98971.00
2023-03-12T12:43:36.934Z,98966.38
2023-03-12T12:44:46.623Z,98971.81
2023-03-12T12:45:52.571Z,98957.44
2023-03-12T12:47:05.350Z,98971.19
2023-03-12T12:48:17.516Z,98978.88
2023-03-12T12:49:30.324Z,98972.22
2023-03-12T12:50:38.292Z,98965.09
2023-03-12T12:51:46.177Z,98971.69
2023-03-12T12:53:20.460Z,98971.41
2023-03-12T12:54:22.665Z,98963.63
2023-03-12T12:55:47.947Z,98964.13
2023-03-12T12:57:00.745Z,98971.84
2023-03-12T12:58:15.773Z,98976.34
2023-03-12T12:59:52.070Z,98972.34
2023-03-12T13:00:55.931Z,98971.94
2023-03-12T13:02:01.320Z,98965.09
2023-03-12T13:03:04.261Z,98971.16
2023-03-12T13:04:13.448Z,98966.72
2023-03-12T13:05:22.762Z,98960.00
2023-03-12T13:06:29.956Z,98967.97
2023-03-12T13:07:34.256Z,98959.28
2023-03-12T13:08:39.329Z,98963.81
2023-03-12T13:09:46.184Z,98952.81
2023-03-12T13:10:58.152Z,98953.53
2023-03-12T13:12:47.655Z,98961.91
2023-03-12T13:14:11.342Z,98964.13
2023-03-12T13:15:28.708Z,98954.50
2023-03-12T13:16:38.616Z,98949.13
2023-03-12T13:18:03.970Z,98947.31
2023-03-12T13:19:27.573Z,98961.56
2023-03-12T13:21:07.024Z,98955.28
2023-03-12T13:22:12.766Z,98947.69
2023-03-12T13:23:34.045Z,98941.63
2023-03-12T13:25:07.833Z,98936.13
2023-03-12T13:26:47.496Z,98938.03
2023-03-12T13:27:58.439Z,98935.47
2023-03-12T13:29:32.908Z,98939.94
2023-03-12T13:30:35.128Z,98953.09
2023-03-12T13:31:38.628Z,98954.63
2023-03-12T13:32:49.897Z,98950.94
2023-03-12T13:34:00.570Z,98961.53
2023-03-12T13:35:14.796Z,98964.50
2023-03-12T13:36:17.209Z,98964.59
2023-03-12T13:37:29.335Z,98957.94
2023-03-12T13:38:37.277Z,98953.25
2023-03-12T13:39:44.856Z,98957.28
2023-03-12T13:41:00.880Z,98937.56
2023-03-12T13:42:24.983Z,98928.59
2023-03-12T13:43:38.997Z,98950.91
2023-03-12T13:44:43.562Z,98949.03
2023-03-12T13:46:06.735Z,98944.75
2023-03-12T13:47:11.931Z,98948.31
2023-03-12T13:48:18.118Z,98934.28